Pays
Station

 

Conditions  météo  pour  Watertown, Watertown Municipal Airport  -  Etats-Unis    Etats-Unis

  
3 °C
    
 
 

METAR pour Watertown, Watertown Municipal Airport :

KATY 160353Z AUTO 34013KT 10SM OVC013 03/01 A3018 RMK AO2 SLP234 T00330006

 

Voici le bulletin pour Watertown, Watertown Municipal Airport - Etats-Unis.
 
Le bulletin a été fait il y a 36 minutes, à 03:53 UTC .
Le vent soufflait à la vitesse de 6.7 mètres par seconde de Nord/Nord-ouest (340°).
 
La température était de 3 °C, avec un point de rosée à 1 °C.
La température ressentie était de -2 °C.
 
La pression atmosphérique était de 1022 hPa.
L'humidité relative était de 86.7%.
 
Le ciel était nuageux à partir d'une hauteur de 396 mètres
 
La visibilité globale était de 16.1 kilomètres.
 

 
 
 

Pays :   A   B   C   D   E   F   G   H   I   J   K   L   M   N   O   P   Q   R   S   T   U   V   W   Y   Z

 

Partenaires :  Info Météo avec Met'info
Météo Marine avec MeteoMarine.net
Infos Site  |  Infos Légales  |  Crédits  |  Confidentialité
Contactez-nous  |  Ajouter aux favoris
© 2013-2019 METAR - Tous droits réservés